Time;durP1;ratioP1;P1;durP2;ratioP2;P2;SDS_P1;SDS_P2;PMS_P1;PMS_P2;Temp;Humidity;BMP_temperature;BMP_pressure;BME280_temperature;BME280_humidity;BME280_pressure;Samples;Min_cycle;Max_cycle;Signal;HPM_P1;HPM_P2
2023/09/15 00:00:47;;;;;;;;;;;;;;;12.09;88.55;101156.45;675581;1259;125415;-78
2023/09/15 00:15:51;;;;;;;;;;;;;;;11.47;89.91;101159.91;672670;1260;126030;-78
2023/09/15 00:30:58;;;;;;;;;;;;;;;11.46;91.08;101169.42;673075;1264;125869;-78
2023/09/15 00:46:02;;;;;;;;;;;;;;;11.40;90.36;101182.17;670874;1264;125847;-77
2023/09/15 01:01:06;;;;;;;;;;;;;;;11.35;90.07;101186.93;670386;1264;127039;-78
2023/09/15 01:16:18;;;;;;;;;;;;;;;11.52;87.84;101196.66;670879;1262;125183;-78
2023/09/15 01:31:22;;;;;;;;;;;;;;;11.48;86.98;101202.89;671043;1264;126318;-77
2023/09/15 01:46:25;;;;;;;;;;;;;;;11.37;86.61;101209.52;672010;1260;125577;-78
2023/09/15 02:01:28;;;;;;;;;;;;;;;11.12;86.48;101223.86;675080;1259;127473;-77
2023/09/15 02:16:32;;;;;;;;;;;;;;;10.83;87.44;101224.95;673186;1266;125463;-77
2023/09/15 02:31:35;;;;;;;;;;;;;;;10.92;86.15;101219.05;670519;1274;125549;-78
2023/09/15 02:46:39;;;;;;;;;;;;;;;10.73;85.79;101215.90;670986;1260;125745;-77
2023/09/15 03:01:42;;;;;;;;;;;;;;;10.68;85.99;101224.14;669341;1266;127049;-77
2023/09/15 03:16:46;;;;;;;;;;;;;;;10.72;84.96;101236.13;670797;1275;126546;-77
2023/09/15 03:31:49;;;;;;;;;;;;;;;10.58;84.66;101246.39;670596;1263;126113;-77
2023/09/15 03:46:52;;;;;;;;;;;;;;;10.43;84.25;101254.30;671286;1265;125828;-77
2023/09/15 04:01:57;;;;;;;;;;;;;;;10.31;83.82;101273.09;671789;1275;126597;-77
2023/09/15 04:17:03;;;;;;;;;;;;;;;10.22;83.87;101286.84;671487;1265;126855;-78
2023/09/15 04:32:08;;;;;;;;;;;;;;;10.09;84.25;101304.55;673048;1266;125982;-79
2023/09/15 04:47:12;;;;;;;;;;;;;;;10.16;84.47;101318.74;673940;1266;190090;-78
2023/09/15 05:02:16;;;;;;;;;;;;;;;10.14;84.53;101323.10;674414;1260;126885;-79
2023/09/15 05:17:19;;;;;;;;;;;;;;;10.42;84.55;101335.52;675413;1266;127290;-79
2023/09/15 05:32:24;;;;;;;;;;;;;;;10.80;84.34;101348.41;671671;1266;126424;-76
2023/09/15 05:47:27;;;;;;;;;;;;;;;11.12;85.17;101361.65;669140;1266;125880;-77
2023/09/15 06:16:52;;;;;;;;;;;;;;;16.32;85.63;101391.63;650953;1296;544097;-77
2023/09/15 06:31:55;;;;;;;;;;;;;;;23.04;73.44;101410.80;664617;1271;124656;-78
2023/09/15 06:46:58;;;;;;;;;;;;;;;25.80;64.07;101411.84;668080;1262;124179;-78
2023/09/15 07:02:02;;;;;;;;;;;;;;;26.69;58.63;101407.36;670189;1266;124361;-77
2023/09/15 07:17:06;;;;;;;;;;;;;;;27.57;55.69;101413.13;669517;1266;124627;-76
2023/09/15 07:32:09;;;;;;;;;;;;;;;28.55;53.82;101416.19;670485;1266;124292;-76
2023/09/15 07:47:14;;;;;;;;;;;;;;;29.42;53.30;101405.55;675785;1262;124366;-77
2023/09/15 08:02:18;;;;;;;;;;;;;;;29.62;52.43;101401.76;674526;1276;124051;-78
2023/09/15 08:17:21;;;;;;;;;;;;;;;28.63;53.11;101391.16;676901;1265;125281;-78
2023/09/15 08:32:36;;;;;;;;;;;;;;;28.41;51.06;101387.05;675336;1265;124204;-79
2023/09/15 08:47:43;;;;;;;;;;;;;;;28.43;50.08;101381.21;673003;1265;124265;-79
2023/09/15 09:02:46;;;;;;;;;;;;;;;27.45;49.13;101361.22;672844;1272;125552;-78
2023/09/15 09:17:49;;;;;;;;;;;;;;;28.13;47.19;101355.20;670711;1260;124564;-78
2023/09/15 09:32:53;;;;;;;;;;;;;;;28.23;46.15;101367.92;668989;1263;124566;-78
2023/09/15 09:48:00;;;;;;;;;;;;;;;27.48;45.87;101365.17;671977;1263;124774;-76
2023/09/15 10:03:04;;;;;;;;;;;;;;;27.72;45.91;101361.02;668444;1264;124823;-77
2023/09/15 10:18:15;;;;;;;;;;;;;;;28.49;45.15;101355.58;672390;1260;124355;-78
2023/09/15 10:33:21;;;;;;;;;;;;;;;28.38;45.43;101356.55;676015;1263;125115;-77
2023/09/15 10:48:38;;;;;;;;;;;;;;;27.87;45.18;101353.41;672717;1264;125695;-77
2023/09/15 11:03:41;;;;;;;;;;;;;;;26.82;45.42;101341.08;668462;1262;124498;-78
2023/09/15 11:18:45;;;;;;;;;;;;;;;26.96;45.47;101333.61;668833;1263;124982;-78
2023/09/15 11:33:49;;;;;;;;;;;;;;;26.06;45.83;101329.42;673316;1263;124231;-79
2023/09/15 11:48:54;;;;;;;;;;;;;;;26.54;45.65;101325.36;673398;1273;125902;-79
2023/09/15 12:03:57;;;;;;;;;;;;;;;26.76;45.89;101318.98;673391;1272;124619;-79
2023/09/15 12:19:01;;;;;;;;;;;;;;;27.60;45.76;101303.19;673035;1272;125499;-79
2023/09/15 12:34:05;;;;;;;;;;;;;;;27.39;45.70;101290.85;672791;1264;125418;-78
2023/09/15 12:49:08;;;;;;;;;;;;;;;27.20;45.81;101274.67;672883;1268;125986;-78
2023/09/15 13:04:12;;;;;;;;;;;;;;;26.97;46.02;101258.45;673108;1263;125532;-79
2023/09/15 13:19:15;;;;;;;;;;;;;;;26.32;46.66;101249.05;668429;1263;124947;-78
2023/09/15 13:34:20;;;;;;;;;;;;;;;25.74;46.41;101236.73;672038;1264;125705;-78
2023/09/15 13:49:23;;;;;;;;;;;;;;;25.50;46.47;101225.89;671925;1263;125226;-77
2023/09/15 14:04:27;;;;;;;;;;;;;;;25.66;46.81;101206.96;669350;1264;125948;-76
2023/09/15 14:19:30;;;;;;;;;;;;;;;25.26;46.73;101200.27;670049;1264;125417;-82
2023/09/15 14:34:34;;;;;;;;;;;;;;;25.21;47.39;101198.13;672876;1263;126448;-84
2023/09/15 14:49:38;;;;;;;;;;;;;;;24.81;47.63;101195.17;672845;1263;124815;-82
2023/09/15 15:04:41;;;;;;;;;;;;;;;24.75;48.05;101194.67;672714;1263;124459;-80
2023/09/15 15:19:48;;;;;;;;;;;;;;;24.62;48.64;101192.32;673760;1263;124689;-82
2023/09/15 15:34:52;;;;;;;;;;;;;;;24.38;48.14;101188.80;673794;1263;125111;-82
2023/09/15 15:49:55;;;;;;;;;;;;;;;24.05;48.85;101179.63;676158;1263;124012;-81
2023/09/15 16:04:59;;;;;;;;;;;;;;;23.84;49.32;101186.16;673105;1260;124705;-79
2023/09/15 16:20:02;;;;;;;;;;;;;;;23.42;50.22;101199.00;673241;1260;124492;-82
2023/09/15 16:35:06;;;;;;;;;;;;;;;22.88;51.41;101202.30;673419;1263;124543;-80
2023/09/15 16:50:11;;;;;;;;;;;;;;;22.11;52.45;101200.19;672675;1259;124884;-78
2023/09/15 17:05:15;;;;;;;;;;;;;;;21.43;53.43;101213.70;673176;1263;124482;-79
2023/09/15 17:20:18;;;;;;;;;;;;;;;20.66;55.02;101220.62;673118;1263;124349;-80
2023/09/15 17:35:22;;;;;;;;;;;;;;;20.01;56.27;101237.86;673146;1263;124550;-79
2023/09/15 17:50:25;;;;;;;;;;;;;;;19.42;57.25;101251.65;673038;1264;124357;-79
2023/09/15 18:05:29;;;;;;;;;;;;;;;19.01;58.53;101257.02;673274;1262;124639;-79
2023/09/15 18:20:32;;;;;;;;;;;;;;;18.59;59.64;101253.71;672975;1267;147324;-80
2023/09/15 18:35:36;;;;;;;;;;;;;;;18.19;60.76;101262.46;673108;1263;125333;-80
2023/09/15 18:50:40;;;;;;;;;;;;;;;17.77;61.85;101272.82;673050;1263;126067;-80
2023/09/15 19:05:44;;;;;;;;;;;;;;;16.99;62.38;101275.52;673214;1276;124429;-79
2023/09/15 19:20:48;;;;;;;;;;;;;;;16.52;63.47;101279.95;673057;1260;124528;-80
2023/09/15 19:35:53;;;;;;;;;;;;;;;16.33;64.90;101277.15;673163;1260;124305;-80
2023/09/15 19:50:56;;;;;;;;;;;;;;;16.20;65.82;101282.16;672954;1263;124502;-80
2023/09/15 20:06:00;;;;;;;;;;;;;;;15.81;66.41;101287.55;673368;1263;124736;-80
2023/09/15 20:21:04;;;;;;;;;;;;;;;15.50;67.24;101287.66;673224;1275;124639;-79
2023/09/15 20:36:07;;;;;;;;;;;;;;;15.07;69.97;101286.95;673327;1259;124665;-80
2023/09/15 20:51:11;;;;;;;;;;;;;;;14.77;71.09;101283.19;675169;1263;125809;-80
2023/09/15 21:06:14;;;;;;;;;;;;;;;14.49;71.41;101284.17;675790;1266;125100;-80
2023/09/15 21:21:17;;;;;;;;;;;;;;;14.25;71.87;101286.09;673341;1260;125219;-79
2023/09/15 21:36:21;;;;;;;;;;;;;;;14.03;72.32;101286.12;673115;1263;125308;-79
2023/09/15 21:51:24;;;;;;;;;;;;;;;13.72;72.92;101282.09;673254;1263;125643;-79
2023/09/15 22:06:28;;;;;;;;;;;;;;;13.55;73.00;101289.34;673391;1263;125854;-79
2023/09/15 22:21:31;;;;;;;;;;;;;;;13.45;73.45;101285.26;673382;1263;125052;-78
2023/09/15 22:36:35;;;;;;;;;;;;;;;13.45;73.13;101288.04;673323;1263;125038;-78
2023/09/15 22:51:40;;;;;;;;;;;;;;;13.50;73.36;101282.59;673199;1263;125235;-78
2023/09/15 23:06:44;;;;;;;;;;;;;;;13.50;73.56;101270.80;673346;1262;125416;-79
2023/09/15 23:21:47;;;;;;;;;;;;;;;13.60;73.04;101264.13;673144;1263;125863;-78
2023/09/15 23:36:51;;;;;;;;;;;;;;;13.59;73.46;101258.59;673727;1262;126197;-79
2023/09/15 23:51:54;;;;;;;;;;;;;;;13.55;73.77;101252.60;673741;1262;125103;-78
